Time;durP1;ratioP1;P1;durP2;ratioP2;P2;SDS_P1;SDS_P2;PMS_P1;PMS_P2;Temp;Humidity;BMP_temperature;BMP_pressure;BME280_temperature;BME280_humidity;BME280_pressure;Samples;Min_cycle;Max_cycle;Signal;HPM_P1;HPM_P2
2020/12/11 00:01:26;;;;;;;110.60;38.05;;;2.50;99.90;;;;;;5031805;28;20725;-47
2020/12/11 00:03:52;;;;;;;102.05;36.10;;;2.50;99.90;;;;;;5031565;28;20040;-47
2020/12/11 00:06:24;;;;;;;85.93;34.33;;;2.50;99.90;;;;;;5028564;28;20017;-47
2020/12/11 00:08:50;;;;;;;101.97;36.83;;;2.60;99.90;;;;;;5031590;28;20550;-45
2020/12/11 00:11:15;;;;;;;97.53;36.22;;;2.60;99.90;;;;;;5031584;28;20032;-46
2020/12/11 00:13:41;;;;;;;93.95;36.95;;;2.60;99.90;;;;;;5031581;28;20374;-45
2020/12/11 00:16:06;;;;;;;91.07;33.80;;;2.60;99.90;;;;;;5031009;28;20021;-45
2020/12/11 00:18:32;;;;;;;98.13;36.85;;;2.60;99.90;;;;;;5031153;28;20545;-47
2020/12/11 00:21:01;;;;;;;94.65;36.20;;;2.60;99.90;;;;;;5030534;28;20108;-47
2020/12/11 00:23:27;;;;;;;108.20;38.22;;;2.60;99.90;;;;;;5030615;28;20034;-46
2020/12/11 00:25:58;;;;;;;108.68;37.13;;;2.60;99.90;;;;;;5030146;28;20038;-45
2020/12/11 00:28:26;;;;;;;116.43;40.17;;;2.60;99.90;;;;;;5030589;28;20498;-46
2020/12/11 00:30:51;;;;;;;102.18;38.67;;;2.60;99.90;;;;;;5030593;28;20513;-45
2020/12/11 00:33:17;;;;;;;113.32;40.80;;;2.60;99.90;;;;;;5030849;28;20036;-45
2020/12/11 00:35:42;;;;;;;108.32;40.30;;;2.60;99.90;;;;;;5029993;28;20029;-45
2020/12/11 00:38:08;;;;;;;127.72;40.67;;;2.60;99.90;;;;;;5031208;28;20048;-46
2020/12/11 00:40:33;;;;;;;117.82;41.60;;;2.50;99.90;;;;;;5031131;28;20108;-49
2020/12/11 00:42:59;;;;;;;127.05;44.25;;;2.60;99.90;;;;;;5031082;28;20486;-47
2020/12/11 00:45:24;;;;;;;125.15;43.70;;;2.60;99.90;;;;;;5030242;28;20025;-49
2020/12/11 00:47:49;;;;;;;118.88;39.95;;;2.50;99.90;;;;;;5030953;28;20036;-46
2020/12/11 00:50:15;;;;;;;152.23;43.40;;;2.50;99.90;;;;;;5030599;28;20068;-46
2020/12/11 00:52:40;;;;;;;137.48;45.45;;;2.50;99.90;;;;;;5030909;28;20075;-46
2020/12/11 00:55:06;;;;;;;153.68;46.15;;;2.50;99.90;;;;;;5030174;28;20029;-47
2020/12/11 00:57:31;;;;;;;136.65;45.53;;;2.50;99.90;;;;;;5030663;28;20386;-46
2020/12/11 00:59:57;;;;;;;146.80;45.17;;;2.50;99.90;;;;;;5030700;28;20087;-46
2020/12/11 01:02:22;;;;;;;151.77;46.85;;;2.50;99.90;;;;;;5030628;28;20087;-46
2020/12/11 01:04:48;;;;;;;142.68;45.35;;;2.50;99.90;;;;;;5029805;28;20029;-46
2020/12/11 01:07:13;;;;;;;148.40;46.75;;;2.50;99.90;;;;;;5030458;28;20108;-48
2020/12/11 01:09:39;;;;;;;150.23;46.17;;;2.50;99.90;;;;;;5030463;28;20064;-48
2020/12/11 01:12:04;;;;;;;149.93;46.50;;;2.50;99.90;;;;;;5030881;28;20493;-46
2020/12/11 01:14:30;;;;;;;137.55;45.28;;;2.50;99.90;;;;;;5030005;28;20033;-47
2020/12/11 01:16:55;;;;;;;157.32;45.92;;;2.50;99.90;;;;;;5030148;28;20025;-46
2020/12/11 01:19:21;;;;;;;149.13;49.22;;;2.50;99.90;;;;;;5030107;28;20037;-49
2020/12/11 01:21:46;;;;;;;151.40;45.95;;;2.60;99.90;;;;;;5030231;28;20026;-47
2020/12/11 01:24:12;;;;;;;154.05;50.80;;;2.60;99.90;;;;;;5030470;28;20388;-46
2020/12/11 01:26:37;;;;;;;151.80;46.88;;;2.60;99.90;;;;;;5029696;28;20037;-46
2020/12/11 01:29:03;;;;;;;143.77;44.78;;;2.60;99.90;;;;;;5030372;28;20025;-47
2020/12/11 01:31:28;;;;;;;172.18;52.33;;;2.60;99.90;;;;;;5030160;28;20076;-46
2020/12/11 01:33:53;;;;;;;170.98;50.75;;;2.60;99.90;;;;;;5030163;28;20651;-47
2020/12/11 01:36:26;;;;;;;151.25;45.25;;;2.60;99.90;;;;;;5029587;28;20026;-48
2020/12/11 01:38:51;;;;;;;141.95;46.83;;;2.60;99.90;;;;;;5030279;28;20033;-46
2020/12/11 01:41:17;;;;;;;145.98;46.40;;;2.60;99.90;;;;;;5029957;28;20036;-46
2020/12/11 01:43:43;;;;;;;159.93;48.55;;;2.60;99.90;;;;;;5030206;28;20040;-45
2020/12/11 01:46:16;;;;;;;154.10;50.13;;;2.60;99.90;;;;;;5029417;28;20067;-47
2020/12/11 01:48:44;;;;;;;158.43;46.40;;;2.60;99.90;;;;;;5030053;28;20014;-45
2020/12/11 01:51:11;;;;;;;146.00;46.10;;;2.60;99.90;;;;;;5029631;28;20021;-46
2020/12/11 01:53:37;;;;;;;158.35;48.13;;;2.60;99.90;;;;;;5029979;28;20061;-46
2020/12/11 01:56:05;;;;;;;155.13;49.47;;;2.70;99.90;;;;;;5029638;28;20053;-46
2020/12/11 01:58:37;;;;;;;152.15;47.50;;;2.60;99.90;;;;;;5029590;28;20109;-46
2020/12/11 02:01:02;;;;;;;154.05;48.70;;;2.60;99.90;;;;;;5030122;28;20021;-45
2020/12/11 02:03:28;;;;;;;152.25;51.25;;;2.60;99.90;;;;;;5030100;28;20686;-45
2020/12/11 02:05:54;;;;;;;149.20;48.80;;;2.60;99.90;;;;;;5029084;28;20033;-45
2020/12/11 02:08:20;;;;;;;158.48;49.67;;;2.60;99.90;;;;;;5029948;28;20045;-46
2020/12/11 02:10:46;;;;;;;151.15;47.38;;;2.60;99.90;;;;;;5030070;28;20522;-45
2020/12/11 02:13:12;;;;;;;157.07;48.42;;;2.70;99.90;;;;;;5029759;28;20030;-46
2020/12/11 02:15:38;;;;;;;157.75;49.00;;;2.60;99.90;;;;;;5029383;28;20021;-45
2020/12/11 02:18:04;;;;;;;163.02;50.42;;;2.60;99.90;;;;;;5029823;28;20544;-46
2020/12/11 02:20:29;;;;;;;161.30;49.53;;;2.60;99.90;;;;;;5029731;28;20028;-45
2020/12/11 02:22:55;;;;;;;159.32;50.65;;;2.70;99.90;;;;;;5028680;28;20112;-46
2020/12/11 02:25:20;;;;;;;159.82;49.33;;;2.70;99.90;;;;;;5029199;28;20398;-45
2020/12/11 02:27:47;;;;;;;163.23;49.13;;;2.70;99.90;;;;;;5029652;28;20029;-45
2020/12/11 02:30:13;;;;;;;147.27;47.63;;;2.70;99.90;;;;;;5033225;28;20017;-45
2020/12/11 02:32:38;;;;;;;152.40;48.53;;;2.70;99.90;;;;;;5033621;28;20017;-46
2020/12/11 02:35:04;;;;;;;156.07;48.20;;;2.70;99.90;;;;;;5032710;28;20065;-47
2020/12/11 02:37:29;;;;;;;156.70;48.95;;;2.70;99.90;;;;;;5033489;28;20064;-46
2020/12/11 02:39:55;;;;;;;151.07;49.85;;;2.70;99.90;;;;;;5033507;28;20036;-46
2020/12/11 02:42:20;;;;;;;162.70;48.60;;;2.70;99.90;;;;;;5033213;28;20041;-47
2020/12/11 02:44:46;;;;;;;153.38;48.15;;;2.70;99.90;;;;;;5032508;28;20021;-46
2020/12/11 02:47:15;;;;;;;133.50;46.72;;;2.70;99.90;;;;;;5032894;28;20032;-46
2020/12/11 02:49:40;;;;;;;166.60;48.10;;;2.70;99.90;;;;;;5032915;28;20033;-45
2020/12/11 02:52:06;;;;;;;160.18;48.65;;;2.70;99.90;;;;;;5032968;28;20060;-46
2020/12/11 02:54:31;;;;;;;151.20;44.42;;;2.80;99.90;;;;;;5032586;28;20067;-46
2020/12/11 02:56:57;;;;;;;161.25;51.55;;;2.70;99.90;;;;;;5032931;28;20037;-45
2020/12/11 02:59:22;;;;;;;147.10;47.80;;;2.70;99.90;;;;;;5032997;28;20022;-45
2020/12/11 03:01:48;;;;;;;152.27;46.40;;;2.70;99.90;;;;;;5033096;28;20033;-46
2020/12/11 03:04:13;;;;;;;148.15;47.33;;;2.70;99.90;;;;;;5033005;28;20041;-45
2020/12/11 03:06:39;;;;;;;136.18;44.90;;;2.70;99.90;;;;;;5032141;28;20375;-45
2020/12/11 03:09:04;;;;;;;154.90;49.67;;;2.70;99.90;;;;;;5033003;28;20042;-46
2020/12/11 03:11:30;;;;;;;145.23;46.88;;;2.60;99.90;;;;;;5032730;28;20033;-46
2020/12/11 03:13:56;;;;;;;162.63;49.65;;;2.70;99.90;;;;;;5032866;28;20024;-45
2020/12/11 03:16:21;;;;;;;153.82;47.33;;;2.70;99.90;;;;;;5032214;28;20499;-45
2020/12/11 03:18:48;;;;;;;168.65;50.45;;;2.70;99.90;;;;;;5032795;28;20029;-45
2020/12/11 03:21:14;;;;;;;159.80;47.17;;;2.70;99.90;;;;;;5032464;28;20033;-45
2020/12/11 03:23:40;;;;;;;157.35;46.35;;;2.70;99.90;;;;;;5032266;28;20026;-46
2020/12/11 03:26:06;;;;;;;143.00;45.95;;;2.70;99.90;;;;;;5031840;28;20030;-46
2020/12/11 03:28:32;;;;;;;158.75;46.80;;;2.70;99.90;;;;;;5032649;28;20037;-46
2020/12/11 03:30:58;;;;;;;149.30;46.03;;;2.70;99.90;;;;;;5032608;28;20032;-46
2020/12/11 03:33:24;;;;;;;155.02;45.58;;;2.70;99.90;;;;;;5032503;28;20021;-47
2020/12/11 03:35:49;;;;;;;156.52;46.45;;;2.70;99.90;;;;;;5031681;28;20033;-48
2020/12/11 03:38:15;;;;;;;146.15;45.03;;;2.70;99.90;;;;;;5032472;28;20033;-45
2020/12/11 03:40:40;;;;;;;153.20;48.78;;;2.70;99.90;;;;;;5032007;28;20034;-49
2020/12/11 03:43:06;;;;;;;156.60;47.90;;;2.70;99.90;;;;;;5032244;28;20507;-48
2020/12/11 03:45:32;;;;;;;141.77;45.67;;;2.70;99.90;;;;;;5030272;28;20022;-50
2020/12/11 03:47:58;;;;;;;153.00;45.30;;;2.70;99.90;;;;;;5032317;28;20030;-48
2020/12/11 03:50:23;;;;;;;152.10;44.15;;;2.70;99.90;;;;;;5031945;28;20058;-45
2020/12/11 03:52:49;;;;;;;147.40;44.97;;;2.70;99.90;;;;;;5032113;28;20507;-48
2020/12/11 03:55:14;;;;;;;159.68;49.38;;;2.80;99.90;;;;;;5031318;28;20352;-46
2020/12/11 03:57:40;;;;;;;140.70;43.97;;;2.80;99.90;;;;;;5032077;28;20025;-46
2020/12/11 04:00:05;;;;;;;152.70;45.05;;;2.80;99.90;;;;;;5032143;28;20030;-45
2020/12/11 04:02:34;;;;;;;146.85;43.38;;;2.80;99.90;;;;;;5031910;28;20029;-48
2020/12/11 04:05:02;;;;;;;162.68;47.50;;;2.80;99.90;;;;;;5031113;28;20025;-48
2020/12/11 04:07:27;;;;;;;146.40;45.05;;;2.80;99.90;;;;;;5031518;28;20033;-47
2020/12/11 04:09:53;;;;;;;154.38;45.75;;;2.80;99.90;;;;;;5031735;28;20108;-46
2020/12/11 04:12:18;;;;;;;144.20;45.38;;;2.80;99.90;;;;;;5031730;28;20025;-46
2020/12/11 04:14:44;;;;;;;140.27;43.95;;;2.70;99.90;;;;;;5031168;28;20161;-45
2020/12/11 04:17:10;;;;;;;139.40;43.38;;;2.70;99.90;;;;;;5031603;28;20048;-46
2020/12/11 04:19:35;;;;;;;135.27;44.08;;;2.70;99.90;;;;;;5031228;28;20033;-47
2020/12/11 04:22:02;;;;;;;137.98;44.65;;;2.80;99.90;;;;;;5031602;28;20030;-47
2020/12/11 04:24:28;;;;;;;128.32;41.92;;;2.80;99.90;;;;;;5030969;28;20029;-46
2020/12/11 04:26:53;;;;;;;127.65;42.28;;;2.80;99.90;;;;;;5031680;28;20031;-48
2020/12/11 04:29:19;;;;;;;127.28;42.15;;;2.80;99.90;;;;;;5030037;28;20025;-46
2020/12/11 04:31:56;;;;;;;110.85;39.78;;;2.80;99.90;;;;;;5031363;28;20032;-47
2020/12/11 04:34:21;;;;;;;116.78;36.63;;;2.80;99.90;;;;;;5030878;28;20491;-45
2020/12/11 04:36:55;;;;;;;112.95;40.70;;;2.80;99.90;;;;;;5030951;28;20075;-45
2020/12/11 04:39:22;;;;;;;110.85;37.17;;;2.90;99.90;;;;;;5031310;28;20029;-45
2020/12/11 04:41:49;;;;;;;103.55;35.85;;;2.90;99.90;;;;;;5031306;28;20021;-45
2020/12/11 04:44:14;;;;;;;109.63;36.90;;;2.90;99.90;;;;;;5031272;28;20056;-45
2020/12/11 04:46:40;;;;;;;98.57;37.33;;;2.90;99.90;;;;;;5030757;28;20025;-46
2020/12/11 04:49:06;;;;;;;103.65;36.03;;;2.90;99.90;;;;;;5035579;28;20022;-45
2020/12/11 04:51:33;;;;;;;109.82;37.80;;;2.90;99.90;;;;;;5038246;28;20398;-45
2020/12/11 04:54:01;;;;;;;97.85;36.65;;;2.90;99.90;;;;;;5039343;28;20028;-50
2020/12/11 04:56:27;;;;;;;92.53;35.15;;;2.90;99.90;;;;;;5030277;28;20063;-44
2020/12/11 04:58:54;;;;;;;104.82;38.20;;;2.90;99.90;;;;;;5030835;28;20036;-46
2020/12/11 05:01:26;;;;;;;110.85;35.47;;;2.90;99.90;;;;;;5030897;28;20036;-46
2020/12/11 05:03:53;;;;;;;103.72;36.85;;;2.90;99.90;;;;;;5030702;28;20033;-47
2020/12/11 05:06:18;;;;;;;113.30;40.42;;;3.00;99.90;;;;;;5029793;28;20017;-45
2020/12/11 05:08:44;;;;;;;117.78;40.33;;;3.00;99.90;;;;;;5031524;28;20074;-45
2020/12/11 05:11:24;;;;;;;125.63;40.13;;;3.00;99.90;;;;;;5039862;28;20077;-45
2020/12/11 05:13:50;;;;;;;125.50;40.17;;;3.00;99.90;;;;;;5036771;28;20034;-45
2020/12/11 05:16:15;;;;;;;126.18;40.90;;;3.00;99.90;;;;;;5032167;28;20048;-46
2020/12/11 05:18:41;;;;;;;129.75;41.05;;;3.00;99.90;;;;;;5033893;28;20033;-45
2020/12/11 05:21:26;;;;;;;136.13;43.72;;;3.00;99.90;;;;;;5036640;28;20048;-48
2020/12/11 05:24:02;;;;;;;139.25;44.95;;;2.90;99.90;;;;;;5039364;28;20244;-45
2020/12/11 05:26:32;;;;;;;124.22;42.03;;;2.90;99.90;;;;;;5043444;28;20115;-46
2020/12/11 05:28:59;;;;;;;144.15;45.97;;;2.90;99.90;;;;;;5050406;28;20044;-45
2020/12/11 05:31:25;;;;;;;137.07;43.45;;;2.90;99.90;;;;;;5040262;28;20029;-46
2020/12/11 05:34:08;;;;;;;134.07;46.05;;;2.90;99.90;;;;;;5040323;28;20047;-46
2020/12/11 05:36:52;;;;;;;121.63;41.67;;;2.90;99.90;;;;;;5040004;28;20044;-46
2020/12/11 05:39:31;;;;;;;136.00;44.78;;;2.90;99.90;;;;;;5040811;28;20032;-45
2020/12/11 05:41:58;;;;;;;142.75;45.88;;;2.90;99.90;;;;;;5040923;28;20025;-45
2020/12/11 05:44:31;;;;;;;144.23;43.67;;;2.90;99.90;;;;;;5038470;28;20075;-48
2020/12/11 05:46:58;;;;;;;130.05;42.60;;;2.80;99.90;;;;;;5038665;28;20060;-45
2020/12/11 05:49:26;;;;;;;131.40;44.47;;;2.90;99.90;;;;;;5040332;28;20102;-46
2020/12/11 05:52:15;;;;;;;128.25;43.80;;;2.80;99.90;;;;;;5039676;28;20475;-45
2020/12/11 05:54:53;;;;;;;151.23;44.45;;;2.90;99.90;;;;;;5037642;28;20060;-45
2020/12/11 05:57:20;;;;;;;125.80;40.60;;;2.90;99.90;;;;;;5038116;28;20013;-44
2020/12/11 05:59:46;;;;;;;138.52;42.92;;;2.90;99.90;;;;;;5039416;28;20055;-47
2020/12/11 06:02:12;;;;;;;129.93;41.03;;;2.80;99.90;;;;;;5040637;28;20025;-45
2020/12/11 06:04:38;;;;;;;120.63;40.03;;;2.90;99.90;;;;;;5042510;28;20033;-50
2020/12/11 06:07:13;;;;;;;121.03;39.78;;;2.80;99.90;;;;;;5044150;28;20017;-46
2020/12/11 06:09:41;;;;;;;110.85;38.78;;;2.90;99.90;;;;;;5041234;28;20022;-45
2020/12/11 06:12:08;;;;;;;120.40;39.42;;;2.90;99.90;;;;;;5041620;28;20037;-47
2020/12/11 06:14:46;;;;;;;106.40;36.42;;;2.90;99.90;;;;;;5033451;28;20498;-45
2020/12/11 06:17:14;;;;;;;93.68;34.03;;;2.90;99.90;;;;;;5033936;28;20063;-46
2020/12/11 06:19:42;;;;;;;86.32;33.83;;;2.90;99.90;;;;;;5033909;28;20033;-45
2020/12/11 06:22:07;;;;;;;104.78;37.22;;;3.00;99.90;;;;;;5033648;28;20415;-46
2020/12/11 06:24:34;;;;;;;94.00;33.53;;;3.00;99.90;;;;;;5033374;28;20030;-45
2020/12/11 06:27:01;;;;;;;90.75;33.97;;;3.00;99.90;;;;;;5033823;28;20543;-48
2020/12/11 06:29:30;;;;;;;94.30;35.13;;;3.00;99.90;;;;;;5033540;28;20028;-48
2020/12/11 06:31:56;;;;;;;81.38;31.80;;;3.10;99.90;;;;;;5033740;28;20108;-47
2020/12/11 06:34:22;;;;;;;95.45;35.67;;;3.00;99.90;;;;;;5032825;28;20113;-46
2020/12/11 06:36:52;;;;;;;103.97;37.78;;;3.00;99.90;;;;;;5032738;28;20052;-46
2020/12/11 06:39:45;;;;;;;96.43;35.58;;;3.00;99.90;;;;;;5032986;28;20066;-47
2020/12/11 06:42:36;;;;;;;94.18;35.80;;;3.00;99.90;;;;;;5032062;28;20028;-46
2020/12/11 06:45:21;;;;;;;91.43;33.35;;;3.00;99.90;;;;;;5031417;28;20022;-46
2020/12/11 06:47:57;;;;;;;90.55;33.67;;;3.00;99.90;;;;;;5041187;28;20040;-46
2020/12/11 06:50:30;;;;;;;99.38;36.20;;;2.90;99.90;;;;;;5052814;28;20029;-47
2020/12/11 06:52:56;;;;;;;97.82;35.88;;;3.00;99.90;;;;;;5053118;28;20382;-45
2020/12/11 06:55:42;;;;;;;101.80;36.08;;;3.00;99.90;;;;;;5052183;28;20044;-48
2020/12/11 06:58:17;;;;;;;95.05;36.08;;;3.00;99.90;;;;;;5052711;28;20033;-46
2020/12/11 07:00:51;;;;;;;95.22;36.10;;;3.10;99.90;;;;;;5040925;28;20359;-46
2020/12/11 07:03:22;;;;;;;100.00;35.15;;;3.10;99.90;;;;;;5034156;28;20137;-46
2020/12/11 07:06:00;;;;;;;;;;;3.10;99.90;;;;;;5032670;28;20025;-47
2020/12/11 07:08:26;;;;;;;96.25;34.17;;;3.00;99.90;;;;;;5032210;28;20019;-44
2020/12/11 07:10:52;;;;;;;94.93;33.72;;;3.00;99.90;;;;;;5031604;28;20567;-46
2020/12/11 07:13:17;;;;;;;105.13;34.60;;;3.00;99.90;;;;;;5031586;28;20040;-45
2020/12/11 07:15:43;;;;;;;87.50;32.47;;;3.10;99.90;;;;;;5030354;28;20028;-45
2020/12/11 07:18:16;;;;;;;94.70;34.42;;;3.10;99.90;;;;;;5031567;28;20144;-45
2020/12/11 07:20:57;;;;;;;95.47;34.88;;;3.10;99.90;;;;;;5036290;28;20017;-44
2020/12/11 07:23:23;;;;;;;;;;;3.10;99.90;;;;;;5050525;28;20692;-44
2020/12/11 07:25:50;;;;;;;104.65;37.17;;;3.10;99.90;;;;;;5050600;28;19951;-45
2020/12/11 07:28:16;;;;;;;106.40;38.65;;;3.00;99.90;;;;;;5051318;28;20021;-44
2020/12/11 07:30:43;;;;;;;111.93;37.60;;;3.10;99.90;;;;;;5051318;28;20024;-44
2020/12/11 07:33:10;;;;;;;107.45;38.63;;;3.00;99.90;;;;;;5051290;28;20021;-44
2020/12/11 07:35:37;;;;;;;126.35;41.10;;;3.00;99.90;;;;;;5033987;28;20028;-44
2020/12/11 07:38:03;;;;;;;110.05;38.90;;;3.10;99.90;;;;;;5031135;28;20021;-46
2020/12/11 07:40:29;;;;;;;123.20;39.67;;;3.10;99.90;;;;;;5045467;28;20075;-44
2020/12/11 07:42:55;;;;;;;135.75;42.28;;;3.10;99.90;;;;;;5035061;28;20402;-44
2020/12/11 07:45:40;;;;;;;136.90;44.10;;;3.10;99.90;;;;;;5030473;28;20030;-45
2020/12/11 07:48:06;;;;;;;389.13;179.07;;;3.20;99.90;;;;;;5031153;28;20495;-44
2020/12/11 07:50:32;;;;;;;143.05;46.88;;;3.10;99.90;;;;;;5030374;28;20030;-44
2020/12/11 07:52:58;;;;;;;133.65;41.00;;;3.10;99.90;;;;;;5030848;28;20056;-45
2020/12/11 07:55:28;;;;;;;131.73;41.50;;;3.10;99.90;;;;;;5030307;28;20379;-44
2020/12/11 07:57:58;;;;;;;128.93;43.47;;;3.10;99.90;;;;;;5029722;28;20068;-44
2020/12/11 08:00:24;;;;;;;140.27;42.92;;;3.20;99.90;;;;;;5031159;28;20021;-46
2020/12/11 08:02:54;;;;;;;114.75;38.42;;;3.20;99.90;;;;;;5029842;28;20064;-44
2020/12/11 08:05:21;;;;;;;136.40;42.20;;;3.20;99.90;;;;;;5029944;28;20026;-47
2020/12/11 08:07:49;;;;;;;129.88;40.63;;;3.10;99.90;;;;;;5012737;28;528469;-44
2020/12/11 08:10:16;;;;;;;116.70;41.08;;;3.10;99.90;;;;;;5031694;28;20391;-44
2020/12/11 08:12:42;;;;;;;123.88;41.28;;;3.10;99.90;;;;;;5030712;28;20032;-45
2020/12/11 08:15:09;;;;;;;110.95;41.10;;;3.10;99.90;;;;;;5030049;28;20458;-46
2020/12/11 08:17:35;;;;;;;117.53;40.33;;;3.10;99.90;;;;;;5030555;28;20018;-44
2020/12/11 08:20:06;;;;;;;114.18;37.67;;;3.10;99.90;;;;;;5030775;28;20552;-44
2020/12/11 08:22:42;;;;;;;119.32;39.08;;;3.00;99.90;;;;;;5030371;28;20033;-45
2020/12/11 08:25:26;;;;;;;110.53;37.35;;;3.10;99.90;;;;;;5030707;28;20028;-45
2020/12/11 08:27:51;;;;;;;113.88;37.58;;;3.10;99.90;;;;;;5030772;28;20018;-50
2020/12/11 08:30:18;;;;;;;109.45;39.78;;;3.10;99.90;;;;;;5031393;28;20032;-50
2020/12/11 08:32:45;;;;;;;102.10;36.55;;;3.20;99.90;;;;;;5031365;28;20080;-48
2020/12/11 08:35:21;;;;;;;96.57;35.78;;;3.10;99.90;;;;;;5043303;28;20651;-51
2020/12/11 08:37:54;;;;;;;95.07;34.50;;;3.10;99.90;;;;;;5051312;28;20071;-50
2020/12/11 08:40:20;;;;;;;94.00;36.55;;;3.20;99.90;;;;;;5051217;28;20036;-47
2020/12/11 08:51:25;;;;;;;86.93;33.67;;;3.20;99.90;;;;;;5030909;28;20028;-50
2020/12/11 08:53:55;;;;;;;94.75;33.45;;;3.20;99.90;;;;;;5030068;28;20022;-47
2020/12/11 08:56:20;;;;;;;99.50;35.75;;;3.20;99.90;;;;;;5029067;28;20064;-48
2020/12/11 08:58:46;;;;;;;83.80;33.65;;;3.20;99.90;;;;;;5029707;28;20053;-47
2020/12/11 09:01:11;;;;;;;88.82;33.72;;;3.20;99.90;;;;;;5045914;28;20486;-49
2020/12/11 09:03:37;;;;;;;90.43;35.08;;;3.20;99.90;;;;;;5028989;28;20033;-48
2020/12/11 09:06:03;;;;;;;95.35;34.17;;;3.20;99.90;;;;;;5034857;28;20028;-48
2020/12/11 09:08:28;;;;;;;87.32;33.65;;;3.30;99.90;;;;;;5041172;28;20115;-48
2020/12/11 09:10:53;;;;;;;81.82;32.00;;;3.30;99.90;;;;;;5040038;28;20025;-45
2020/12/11 09:13:19;;;;;;;88.03;34.70;;;3.30;99.90;;;;;;5039139;28;20488;-47
2020/12/11 09:15:45;;;;;;;109.03;35.40;;;3.30;99.90;;;;;;5040590;28;20025;-46
2020/12/11 09:18:10;;;;;;;92.03;33.40;;;3.30;99.90;;;;;;5041160;28;20493;-47
2020/12/11 09:20:36;;;;;;;98.53;35.88;;;3.30;99.90;;;;;;5040039;28;20095;-46
2020/12/11 09:23:01;;;;;;;97.57;35.47;;;3.30;99.90;;;;;;5039502;28;20099;-47
2020/12/11 09:25:27;;;;;;;92.88;33.42;;;3.30;99.90;;;;;;5040342;28;20638;-47
2020/12/11 09:27:52;;;;;;;94.60;34.90;;;3.30;99.90;;;;;;5039623;28;20021;-46
2020/12/11 09:30:30;;;;;;;87.43;33.28;;;3.30;99.90;;;;;;5040104;28;20017;-47
2020/12/11 09:33:12;;;;;;;86.85;33.03;;;3.40;99.90;;;;;;5039624;28;20025;-50
2020/12/11 09:35:38;;;;;;;90.97;32.78;;;3.40;99.90;;;;;;5034955;28;20079;-46
2020/12/11 09:38:04;;;;;;;88.18;31.38;;;3.50;99.90;;;;;;5037489;28;20030;-48
2020/12/11 09:46:29;;;;;;;81.60;32.17;;;3.50;99.90;;;;;;5048778;28;20047;-47
2020/12/11 09:49:03;;;;;;;86.53;35.72;;;3.50;99.90;;;;;;5049409;28;20439;-48
2020/12/11 09:56:31;;;;;;;99.97;35.00;;;3.50;99.90;;;;;;5045089;28;20029;-47
2020/12/11 10:04:12;;;;;;;88.32;32.60;;;3.50;99.90;;;;;;5039239;28;20080;-47
2020/12/11 10:06:38;;;;;;;84.13;32.13;;;3.50;99.90;;;;;;5037333;28;20027;-48
2020/12/11 10:09:03;;;;;;;83.07;32.65;;;3.50;99.90;;;;;;5040408;28;20398;-47
2020/12/11 10:11:29;;;;;;;79.30;31.55;;;3.60;99.90;;;;;;5040200;28;20028;-48
2020/12/11 10:14:12;;;;;;;83.75;33.08;;;3.60;99.90;;;;;;5037498;28;20021;-48
2020/12/11 10:16:38;;;;;;;80.85;31.02;;;3.70;99.90;;;;;;5039417;28;20034;-47
2020/12/11 10:19:04;;;;;;;76.90;30.95;;;3.70;99.90;;;;;;5038011;28;20017;-47
2020/12/11 10:21:30;;;;;;;78.25;31.38;;;3.70;99.90;;;;;;5040183;28;20068;-47
2020/12/11 10:23:58;;;;;;;82.95;30.77;;;3.80;99.90;;;;;;5038147;28;20428;-49
2020/12/11 10:26:24;;;;;;;77.05;29.52;;;3.80;99.90;;;;;;5037363;28;20087;-44
2020/12/11 10:28:50;;;;;;;82.05;32.28;;;3.80;99.90;;;;;;5038106;28;20018;-45
2020/12/11 10:31:17;;;;;;;79.85;29.42;;;3.70;99.90;;;;;;5039371;28;20387;-45
2020/12/11 10:33:42;;;;;;;69.68;28.23;;;3.80;99.90;;;;;;5037753;28;20021;-44
2020/12/11 10:36:08;;;;;;;69.25;29.35;;;3.80;99.90;;;;;;5035075;28;20029;-44
2020/12/11 10:38:34;;;;;;;72.10;29.45;;;3.80;99.90;;;;;;5035514;28;20036;-45
2020/12/11 10:40:59;;;;;;;78.05;30.50;;;3.80;99.90;;;;;;5037868;28;20026;-46
2020/12/11 10:43:25;;;;;;;72.95;31.42;;;3.80;99.90;;;;;;5039277;28;20041;-46
2020/12/11 10:45:50;;;;;;;82.13;31.08;;;3.80;99.90;;;;;;5037130;28;20060;-45
2020/12/11 10:48:16;;;;;;;77.05;29.38;;;3.70;99.90;;;;;;5037979;28;20067;-45
2020/12/11 10:50:41;;;;;;;74.88;29.73;;;3.70;99.90;;;;;;5041692;28;20013;-47
2020/12/11 10:53:07;;;;;;;79.63;27.65;;;3.70;99.90;;;;;;5041364;28;20529;-45
2020/12/11 10:55:32;;;;;;;73.95;28.35;;;3.80;99.90;;;;;;5041292;28;20033;-45
2020/12/11 10:57:58;;;;;;;71.72;29.35;;;3.80;99.90;;;;;;5041978;28;20345;-45
2020/12/11 11:00:23;;;;;;;68.38;28.80;;;3.80;99.90;;;;;;5041518;28;20095;-44
2020/12/11 11:02:49;;;;;;;77.18;30.17;;;3.90;99.90;;;;;;5043003;28;20116;-45
2020/12/11 11:05:14;;;;;;;69.40;29.95;;;3.80;99.90;;;;;;5041419;28;20025;-45
2020/12/11 11:07:41;;;;;;;78.10;30.88;;;3.80;99.90;;;;;;5040168;28;20337;-44
2020/12/11 11:12:40;;;;;;;73.40;30.15;;;3.80;99.90;;;;;;5040863;28;20028;-45
2020/12/11 11:23:21;;;;;;;68.45;27.75;;;3.90;99.90;;;;;;5041441;28;20056;-48
2020/12/11 11:26:08;;;;;;;67.95;26.58;;;3.90;99.90;;;;;;5039916;28;20448;-47
2020/12/11 11:28:34;;;;;;;65.80;26.23;;;3.90;99.90;;;;;;5042176;28;20017;-47
2020/12/11 11:31:00;;;;;;;74.57;28.98;;;3.80;99.90;;;;;;5040551;28;20044;-47
2020/12/11 11:33:25;;;;;;;76.60;27.42;;;3.80;99.90;;;;;;5040478;28;20033;-47
2020/12/11 11:35:51;;;;;;;64.07;26.15;;;3.80;99.90;;;;;;5042199;28;20533;-47
2020/12/11 11:38:19;;;;;;;76.03;28.40;;;3.80;99.90;;;;;;5039051;28;20048;-48
2020/12/11 11:40:45;;;;;;;62.03;25.48;;;3.80;99.90;;;;;;5042181;28;20018;-47
2020/12/11 11:43:11;;;;;;;62.67;25.65;;;3.80;99.90;;;;;;5039737;28;20036;-48
2020/12/11 11:45:38;;;;;;;66.28;27.00;;;3.80;99.90;;;;;;5039703;28;20029;-47
2020/12/11 11:48:08;;;;;;;61.58;26.92;;;3.90;99.90;;;;;;5040915;28;20028;-47
2020/12/11 11:53:02;;;;;;;63.22;27.10;;;3.90;99.90;;;;;;5040704;28;20029;-47
2020/12/11 11:55:28;;;;;;;61.55;25.60;;;3.90;99.90;;;;;;5041180;28;20021;-48
2020/12/11 11:57:54;;;;;;;68.38;27.58;;;3.90;99.90;;;;;;5040107;28;20448;-47
2020/12/11 12:00:20;;;;;;;66.15;27.48;;;3.90;99.90;;;;;;5044193;28;20115;-47
2020/12/11 12:02:46;;;;;;;64.43;27.05;;;3.90;99.90;;;;;;5041727;28;20021;-49
2020/12/11 12:05:11;;;;;;;65.20;26.50;;;3.90;99.90;;;;;;5038939;28;20017;-48
2020/12/11 12:07:39;;;;;;;64.43;29.42;;;3.80;99.90;;;;;;5040775;28;20029;-47
2020/12/11 12:10:08;;;;;;;63.10;27.73;;;3.90;99.90;;;;;;5041579;28;20018;-48
2020/12/11 12:12:37;;;;;;;78.35;29.27;;;3.80;99.90;;;;;;5036632;28;20482;-47
2020/12/11 12:15:06;;;;;;;69.45;27.55;;;3.80;99.90;;;;;;5040865;28;20032;-50
2020/12/11 12:17:36;;;;;;;67.40;29.10;;;3.80;99.90;;;;;;5040952;28;20026;-49
2020/12/11 12:20:07;;;;;;;64.63;28.57;;;3.90;99.90;;;;;;5039481;28;20048;-49
2020/12/11 12:23:17;;;;;;;66.50;27.05;;;3.90;99.90;;;;;;5039939;28;20032;-47
2020/12/11 12:30:45;;;;;;;74.35;29.85;;;4.00;99.90;;;;;;5040001;28;20497;-49
2020/12/11 12:38:11;;;;;;;68.40;29.35;;;4.10;99.90;;;;;;5037014;28;20079;-50
2020/12/11 12:42:18;;;;;;;65.25;28.42;;;4.00;99.90;;;;;;5039274;28;20033;-48
2020/12/11 12:43:34;;;;;;;67.75;29.25;;;4.10;99.90;;;;;;5040658;28;20025;-49
2020/12/11 12:46:00;;;;;;;71.55;31.98;;;4.10;99.90;;;;;;5038026;28;20037;-46
2020/12/11 12:48:25;;;;;;;67.00;28.38;;;4.00;99.90;;;;;;5040807;28;20090;-47
2020/12/11 12:50:51;;;;;;;67.80;29.35;;;4.00;99.90;;;;;;5040399;28;20025;-47
2020/12/11 12:53:16;;;;;;;71.55;31.58;;;4.10;99.90;;;;;;5038352;28;20020;-49
2020/12/11 12:55:47;;;;;;;68.15;30.48;;;4.00;99.90;;;;;;5041036;28;20039;-47
2020/12/11 12:58:16;;;;;;;73.63;32.42;;;4.00;99.90;;;;;;5039734;28;20044;-48
2020/12/11 13:01:02;;;;;;;74.63;32.80;;;4.00;99.90;;;;;;5040975;28;20044;-46
2020/12/11 13:05:59;;;;;;;72.05;31.88;;;4.00;99.90;;;;;;5038132;28;20035;-47
2020/12/11 13:08:24;;;;;;;77.63;31.92;;;4.00;99.90;;;;;;5030102;28;20021;-47
2020/12/11 13:10:50;;;;;;;69.15;32.35;;;4.00;99.90;;;;;;5030820;28;20458;-48
2020/12/11 13:13:16;;;;;;;73.47;32.33;;;4.00;99.90;;;;;;5046314;28;20021;-48
2020/12/11 13:15:42;;;;;;;71.40;31.98;;;4.00;99.90;;;;;;5047638;28;20092;-47
2020/12/11 13:18:08;;;;;;;72.30;31.73;;;4.10;99.90;;;;;;5044125;28;20087;-47
2020/12/11 13:20:37;;;;;;;68.95;32.63;;;4.20;99.90;;;;;;5040564;28;20036;-46
2020/12/11 13:26:12;;;;;;;65.72;32.22;;;4.10;99.90;;;;;;5044192;28;20050;-47
2020/12/11 13:28:33;;;;;;;71.18;32.42;;;4.10;99.90;;;;;;5039883;28;20150;-50